sensor_id;sensor_type;location;lat;lon;timestamp;temperature;humidity
14670;DHT22;7423;48.722;9.350;2023-07-31T00:01:46;19.60;99.90
14670;DHT22;7423;48.722;9.350;2023-07-31T00:04:13;19.60;99.90
14670;DHT22;7423;48.722;9.350;2023-07-31T00:06:40;19.50;99.90
14670;DHT22;7423;48.722;9.350;2023-07-31T00:09:08;19.40;99.90
14670;DHT22;7423;48.722;9.350;2023-07-31T00:11:35;19.50;99.90
14670;DHT22;7423;48.722;9.350;2023-07-31T00:14:02;19.40;99.90
14670;DHT22;7423;48.722;9.350;2023-07-31T00:16:29;19.40;99.90
14670;DHT22;7423;48.722;9.350;2023-07-31T00:18:56;19.40;99.90
14670;DHT22;7423;48.722;9.350;2023-07-31T00:21:22;19.30;99.90
14670;DHT22;7423;48.722;9.350;2023-07-31T00:23:49;19.40;99.90
14670;DHT22;7423;48.722;9.350;2023-07-31T00:26:16;19.40;99.90
14670;DHT22;7423;48.722;9.350;2023-07-31T00:28:43;19.40;99.90
14670;DHT22;7423;48.722;9.350;2023-07-31T00:31:10;19.30;99.90
14670;DHT22;7423;48.722;9.350;2023-07-31T00:33:37;19.30;99.90
14670;DHT22;7423;48.722;9.350;2023-07-31T00:36:04;19.30;99.90
14670;DHT22;7423;48.722;9.350;2023-07-31T00:38:31;19.20;99.90
14670;DHT22;7423;48.722;9.350;2023-07-31T00:40:58;19.20;99.90
14670;DHT22;7423;48.722;9.350;2023-07-31T00:43:25;19.20;99.90
14670;DHT22;7423;48.722;9.350;2023-07-31T00:45:52;19.20;99.90
14670;DHT22;7423;48.722;9.350;2023-07-31T00:48:19;19.20;99.90
14670;DHT22;7423;48.722;9.350;2023-07-31T00:50:46;19.20;99.90
14670;DHT22;7423;48.722;9.350;2023-07-31T00:53:13;19.20;99.90
14670;DHT22;7423;48.722;9.350;2023-07-31T00:55:40;19.10;99.90
14670;DHT22;7423;48.722;9.350;2023-07-31T00:58:07;19.10;99.90
14670;DHT22;7423;48.722;9.350;2023-07-31T01:00:34;19.10;99.90
14670;DHT22;7423;48.722;9.350;2023-07-31T01:03:01;19.00;99.90
14670;DHT22;7423;48.722;9.350;2023-07-31T01:05:36;19.00;99.90
14670;DHT22;7423;48.722;9.350;2023-07-31T01:10:56;19.00;99.90
14670;DHT22;7423;48.722;9.350;2023-07-31T01:13:44;19.00;99.90
14670;DHT22;7423;48.722;9.350;2023-07-31T01:16:12;18.90;99.90
14670;DHT22;7423;48.722;9.350;2023-07-31T01:18:39;18.90;99.90
14670;DHT22;7423;48.722;9.350;2023-07-31T01:24:07;18.80;99.90
14670;DHT22;7423;48.722;9.350;2023-07-31T01:27:11;18.80;99.90
14670;DHT22;7423;48.722;9.350;2023-07-31T01:29:56;18.80;99.90
14670;DHT22;7423;48.722;9.350;2023-07-31T01:32:28;18.80;99.90
14670;DHT22;7423;48.722;9.350;2023-07-31T01:34:57;18.80;99.90
14670;DHT22;7423;48.722;9.350;2023-07-31T01:37:29;18.90;99.90
14670;DHT22;7423;48.722;9.350;2023-07-31T01:39:58;18.90;99.90
14670;DHT22;7423;48.722;9.350;2023-07-31T01:42:25;18.90;99.90
14670;DHT22;7423;48.722;9.350;2023-07-31T01:44:52;18.80;99.90
14670;DHT22;7423;48.722;9.350;2023-07-31T01:47:19;18.90;99.90
14670;DHT22;7423;48.722;9.350;2023-07-31T01:49:46;18.80;99.90
14670;DHT22;7423;48.722;9.350;2023-07-31T01:52:13;18.80;99.90
14670;DHT22;7423;48.722;9.350;2023-07-31T01:54:39;18.70;99.90
14670;DHT22;7423;48.722;9.350;2023-07-31T01:57:06;18.70;99.90
14670;DHT22;7423;48.722;9.350;2023-07-31T01:59:33;18.60;99.90
14670;DHT22;7423;48.722;9.350;2023-07-31T02:02:00;18.60;99.90
14670;DHT22;7423;48.722;9.350;2023-07-31T02:04:27;18.90;99.90
14670;DHT22;7423;48.722;9.350;2023-07-31T02:06:54;18.60;99.90
14670;DHT22;7423;48.722;9.350;2023-07-31T02:09:21;18.60;99.90
14670;DHT22;7423;48.722;9.350;2023-07-31T02:11:48;18.60;99.90
14670;DHT22;7423;48.722;9.350;2023-07-31T02:14:14;18.50;99.90
14670;DHT22;7423;48.722;9.350;2023-07-31T02:16:41;18.60;99.90
14670;DHT22;7423;48.722;9.350;2023-07-31T02:19:09;18.60;99.90
14670;DHT22;7423;48.722;9.350;2023-07-31T02:21:36;18.50;99.90
14670;DHT22;7423;48.722;9.350;2023-07-31T02:24:03;18.40;99.90
14670;DHT22;7423;48.722;9.350;2023-07-31T02:26:30;18.50;99.90
14670;DHT22;7423;48.722;9.350;2023-07-31T02:28:57;18.50;99.90
14670;DHT22;7423;48.722;9.350;2023-07-31T02:31:24;18.50;99.90
14670;DHT22;7423;48.722;9.350;2023-07-31T02:33:51;18.50;99.90
14670;DHT22;7423;48.722;9.350;2023-07-31T02:36:18;18.50;99.90
14670;DHT22;7423;48.722;9.350;2023-07-31T02:38:45;18.40;99.90
14670;DHT22;7423;48.722;9.350;2023-07-31T02:41:12;18.40;99.90
14670;DHT22;7423;48.722;9.350;2023-07-31T02:43:39;18.40;99.90
14670;DHT22;7423;48.722;9.350;2023-07-31T02:46:06;18.40;99.90
14670;DHT22;7423;48.722;9.350;2023-07-31T02:48:33;18.30;99.90
14670;DHT22;7423;48.722;9.350;2023-07-31T02:51:00;18.30;99.90
14670;DHT22;7423;48.722;9.350;2023-07-31T02:53:26;18.20;99.90
14670;DHT22;7423;48.722;9.350;2023-07-31T02:55:53;18.30;99.90
14670;DHT22;7423;48.722;9.350;2023-07-31T02:58:20;18.30;99.90
14670;DHT22;7423;48.722;9.350;2023-07-31T03:00:47;18.20;99.90
14670;DHT22;7423;48.722;9.350;2023-07-31T03:03:14;18.20;99.90
14670;DHT22;7423;48.722;9.350;2023-07-31T03:05:41;18.20;99.90
14670;DHT22;7423;48.722;9.350;2023-07-31T03:08:08;18.40;99.90
14670;DHT22;7423;48.722;9.350;2023-07-31T03:10:35;18.20;99.90
14670;DHT22;7423;48.722;9.350;2023-07-31T03:13:02;18.20;99.90
14670;DHT22;7423;48.722;9.350;2023-07-31T03:15:28;18.10;99.90
14670;DHT22;7423;48.722;9.350;2023-07-31T03:17:55;18.10;99.90
14670;DHT22;7423;48.722;9.350;2023-07-31T03:20:22;18.00;99.90
14670;DHT22;7423;48.722;9.350;2023-07-31T03:22:49;18.00;99.90
14670;DHT22;7423;48.722;9.350;2023-07-31T03:25:16;18.00;99.90
14670;DHT22;7423;48.722;9.350;2023-07-31T03:27:43;18.00;99.90
14670;DHT22;7423;48.722;9.350;2023-07-31T03:30:10;18.00;99.90
14670;DHT22;7423;48.722;9.350;2023-07-31T03:32:37;18.00;99.90
14670;DHT22;7423;48.722;9.350;2023-07-31T03:35:04;18.00;99.90
14670;DHT22;7423;48.722;9.350;2023-07-31T03:37:32;18.00;99.90
14670;DHT22;7423;48.722;9.350;2023-07-31T03:39:59;18.00;99.90
14670;DHT22;7423;48.722;9.350;2023-07-31T03:42:25;18.00;99.90
14670;DHT22;7423;48.722;9.350;2023-07-31T03:44:52;18.00;99.90
14670;DHT22;7423;48.722;9.350;2023-07-31T03:47:19;18.00;99.90
14670;DHT22;7423;48.722;9.350;2023-07-31T03:49:46;17.90;99.90
14670;DHT22;7423;48.722;9.350;2023-07-31T03:52:13;17.90;99.90
14670;DHT22;7423;48.722;9.350;2023-07-31T03:54:40;17.80;99.90
14670;DHT22;7423;48.722;9.350;2023-07-31T03:57:07;17.80;99.90
14670;DHT22;7423;48.722;9.350;2023-07-31T03:59:33;17.80;99.90
14670;DHT22;7423;48.722;9.350;2023-07-31T04:02:00;17.90;99.90
14670;DHT22;7423;48.722;9.350;2023-07-31T04:04:27;17.80;99.90
14670;DHT22;7423;48.722;9.350;2023-07-31T04:06:54;17.80;99.90
14670;DHT22;7423;48.722;9.350;2023-07-31T04:09:21;17.80;99.90
14670;DHT22;7423;48.722;9.350;2023-07-31T04:11:48;17.70;99.90
14670;DHT22;7423;48.722;9.350;2023-07-31T04:14:15;17.80;99.90
14670;DHT22;7423;48.722;9.350;2023-07-31T04:16:41;17.80;99.90
14670;DHT22;7423;48.722;9.350;2023-07-31T04:19:09;17.80;99.90
14670;DHT22;7423;48.722;9.350;2023-07-31T04:21:37;17.80;99.90
14670;DHT22;7423;48.722;9.350;2023-07-31T04:24:04;17.80;99.90
14670;DHT22;7423;48.722;9.350;2023-07-31T04:26:31;17.80;99.90
14670;DHT22;7423;48.722;9.350;2023-07-31T04:28:57;17.80;99.90
14670;DHT22;7423;48.722;9.350;2023-07-31T04:31:24;17.90;99.90
14670;DHT22;7423;48.722;9.350;2023-07-31T04:33:51;17.90;99.90
14670;DHT22;7423;48.722;9.350;2023-07-31T04:36:18;17.90;99.90
14670;DHT22;7423;48.722;9.350;2023-07-31T04:38:45;17.90;99.90
14670;DHT22;7423;48.722;9.350;2023-07-31T04:41:12;17.90;99.90
14670;DHT22;7423;48.722;9.350;2023-07-31T04:43:39;17.80;99.90
14670;DHT22;7423;48.722;9.350;2023-07-31T04:46:06;17.80;99.90
14670;DHT22;7423;48.722;9.350;2023-07-31T04:48:33;17.80;99.90
14670;DHT22;7423;48.722;9.350;2023-07-31T04:51:00;17.80;99.90
14670;DHT22;7423;48.722;9.350;2023-07-31T04:53:27;17.80;99.90
14670;DHT22;7423;48.722;9.350;2023-07-31T04:55:54;17.90;99.90
14670;DHT22;7423;48.722;9.350;2023-07-31T04:58:21;17.90;99.90
14670;DHT22;7423;48.722;9.350;2023-07-31T05:00:48;17.90;99.90
14670;DHT22;7423;48.722;9.350;2023-07-31T05:03:14;17.90;99.90
14670;DHT22;7423;48.722;9.350;2023-07-31T05:05:41;18.00;99.90
14670;DHT22;7423;48.722;9.350;2023-07-31T05:08:08;18.00;99.90
14670;DHT22;7423;48.722;9.350;2023-07-31T05:10:35;18.10;99.90
14670;DHT22;7423;48.722;9.350;2023-07-31T05:13:02;18.10;99.90
14670;DHT22;7423;48.722;9.350;2023-07-31T05:15:29;18.10;99.90
14670;DHT22;7423;48.722;9.350;2023-07-31T05:17:56;18.20;99.90
14670;DHT22;7423;48.722;9.350;2023-07-31T05:20:23;18.20;99.90
14670;DHT22;7423;48.722;9.350;2023-07-31T05:22:50;18.20;99.90
14670;DHT22;7423;48.722;9.350;2023-07-31T05:25:17;18.20;99.90
14670;DHT22;7423;48.722;9.350;2023-07-31T05:27:44;18.20;99.90
14670;DHT22;7423;48.722;9.350;2023-07-31T05:30:11;18.20;99.90
14670;DHT22;7423;48.722;9.350;2023-07-31T05:32:38;18.20;99.90
14670;DHT22;7423;48.722;9.350;2023-07-31T05:35:05;18.20;99.90
14670;DHT22;7423;48.722;9.350;2023-07-31T05:37:32;18.30;99.90
14670;DHT22;7423;48.722;9.350;2023-07-31T05:39:59;18.30;99.90
14670;DHT22;7423;48.722;9.350;2023-07-31T05:42:26;18.30;99.90
14670;DHT22;7423;48.722;9.350;2023-07-31T05:44:53;18.40;99.90
14670;DHT22;7423;48.722;9.350;2023-07-31T05:47:20;18.40;99.90
14670;DHT22;7423;48.722;9.350;2023-07-31T05:49:48;18.40;99.90
14670;DHT22;7423;48.722;9.350;2023-07-31T05:52:15;18.40;99.90
14670;DHT22;7423;48.722;9.350;2023-07-31T05:54:42;18.50;99.90
14670;DHT22;7423;48.722;9.350;2023-07-31T05:57:09;18.50;99.90
14670;DHT22;7423;48.722;9.350;2023-07-31T05:59:36;18.50;99.90
14670;DHT22;7423;48.722;9.350;2023-07-31T06:02:03;18.60;99.90
14670;DHT22;7423;48.722;9.350;2023-07-31T06:04:30;18.60;99.90
14670;DHT22;7423;48.722;9.350;2023-07-31T06:06:57;18.60;99.90
14670;DHT22;7423;48.722;9.350;2023-07-31T06:09:24;18.70;99.90
14670;DHT22;7423;48.722;9.350;2023-07-31T06:11:52;18.80;99.90
14670;DHT22;7423;48.722;9.350;2023-07-31T06:14:19;18.80;99.90
14670;DHT22;7423;48.722;9.350;2023-07-31T06:16:46;18.80;99.90
14670;DHT22;7423;48.722;9.350;2023-07-31T06:19:13;19.00;99.90
14670;DHT22;7423;48.722;9.350;2023-07-31T06:21:40;18.90;99.90
14670;DHT22;7423;48.722;9.350;2023-07-31T06:24:09;19.10;99.90
14670;DHT22;7423;48.722;9.350;2023-07-31T06:26:35;19.10;99.90
14670;DHT22;7423;48.722;9.350;2023-07-31T06:29:03;19.10;99.90
14670;DHT22;7423;48.722;9.350;2023-07-31T06:31:30;19.20;99.90
14670;DHT22;7423;48.722;9.350;2023-07-31T06:33:57;19.20;99.90
14670;DHT22;7423;48.722;9.350;2023-07-31T06:36:24;19.20;99.90
14670;DHT22;7423;48.722;9.350;2023-07-31T06:38:51;19.30;99.90
14670;DHT22;7423;48.722;9.350;2023-07-31T06:41:18;19.30;99.90
14670;DHT22;7423;48.722;9.350;2023-07-31T06:43:44;19.40;99.90
14670;DHT22;7423;48.722;9.350;2023-07-31T06:46:11;19.40;99.90
14670;DHT22;7423;48.722;9.350;2023-07-31T06:48:38;19.50;99.90
14670;DHT22;7423;48.722;9.350;2023-07-31T06:51:06;19.50;99.90
14670;DHT22;7423;48.722;9.350;2023-07-31T06:53:32;19.60;99.90
14670;DHT22;7423;48.722;9.350;2023-07-31T06:55:59;19.60;99.90
14670;DHT22;7423;48.722;9.350;2023-07-31T06:58:26;19.60;99.90
14670;DHT22;7423;48.722;9.350;2023-07-31T07:00:53;19.60;99.90
14670;DHT22;7423;48.722;9.350;2023-07-31T07:03:20;19.60;99.90
14670;DHT22;7423;48.722;9.350;2023-07-31T07:05:47;19.70;99.90
14670;DHT22;7423;48.722;9.350;2023-07-31T07:08:14;19.70;99.90
14670;DHT22;7423;48.722;9.350;2023-07-31T07:10:41;19.80;99.90
14670;DHT22;7423;48.722;9.350;2023-07-31T07:13:08;19.80;99.90
14670;DHT22;7423;48.722;9.350;2023-07-31T07:15:36;19.80;99.90
14670;DHT22;7423;48.722;9.350;2023-07-31T07:18:03;19.90;99.90
14670;DHT22;7423;48.722;9.350;2023-07-31T07:20:30;20.10;99.90
14670;DHT22;7423;48.722;9.350;2023-07-31T07:22:57;20.10;99.90
14670;DHT22;7423;48.722;9.350;2023-07-31T07:25:24;20.10;99.90
14670;DHT22;7423;48.722;9.350;2023-07-31T07:27:51;20.20;99.90
14670;DHT22;7423;48.722;9.350;2023-07-31T07:30:18;20.20;99.90
14670;DHT22;7423;48.722;9.350;2023-07-31T07:32:46;20.20;99.90
14670;DHT22;7423;48.722;9.350;2023-07-31T07:35:13;20.30;99.90
14670;DHT22;7423;48.722;9.350;2023-07-31T07:37:40;20.40;99.90
14670;DHT22;7423;48.722;9.350;2023-07-31T07:40:07;20.40;99.90
14670;DHT22;7423;48.722;9.350;2023-07-31T07:42:34;20.50;99.90
14670;DHT22;7423;48.722;9.350;2023-07-31T07:45:01;20.60;99.90
14670;DHT22;7423;48.722;9.350;2023-07-31T07:47:29;20.70;99.90
14670;DHT22;7423;48.722;9.350;2023-07-31T07:49:56;20.60;99.90
14670;DHT22;7423;48.722;9.350;2023-07-31T07:52:23;20.70;99.90
14670;DHT22;7423;48.722;9.350;2023-07-31T07:54:50;20.70;99.90
14670;DHT22;7423;48.722;9.350;2023-07-31T07:57:17;20.90;99.90
14670;DHT22;7423;48.722;9.350;2023-07-31T07:59:45;20.90;99.90
14670;DHT22;7423;48.722;9.350;2023-07-31T08:02:11;21.00;99.90
14670;DHT22;7423;48.722;9.350;2023-07-31T08:04:38;21.00;99.90
14670;DHT22;7423;48.722;9.350;2023-07-31T08:07:05;21.00;99.90
14670;DHT22;7423;48.722;9.350;2023-07-31T08:09:32;20.90;99.90
14670;DHT22;7423;48.722;9.350;2023-07-31T08:11:59;21.00;99.90
14670;DHT22;7423;48.722;9.350;2023-07-31T08:14:29;21.10;99.90
14670;DHT22;7423;48.722;9.350;2023-07-31T08:16:58;21.10;99.90
14670;DHT22;7423;48.722;9.350;2023-07-31T08:19:26;21.10;99.90
14670;DHT22;7423;48.722;9.350;2023-07-31T08:21:53;21.20;99.90
14670;DHT22;7423;48.722;9.350;2023-07-31T08:24:23;21.20;99.90
14670;DHT22;7423;48.722;9.350;2023-07-31T08:26:50;21.30;99.90
14670;DHT22;7423;48.722;9.350;2023-07-31T08:29:17;21.30;99.90
14670;DHT22;7423;48.722;9.350;2023-07-31T08:31:44;21.40;99.90
14670;DHT22;7423;48.722;9.350;2023-07-31T08:34:11;21.50;99.90
14670;DHT22;7423;48.722;9.350;2023-07-31T08:36:38;21.40;99.90
14670;DHT22;7423;48.722;9.350;2023-07-31T08:39:05;21.40;99.90
14670;DHT22;7423;48.722;9.350;2023-07-31T08:41:38;21.50;99.90
14670;DHT22;7423;48.722;9.350;2023-07-31T08:44:08;21.50;99.90
14670;DHT22;7423;48.722;9.350;2023-07-31T08:46:37;21.50;99.90
14670;DHT22;7423;48.722;9.350;2023-07-31T08:49:05;21.50;99.90
14670;DHT22;7423;48.722;9.350;2023-07-31T08:51:34;21.60;99.90
14670;DHT22;7423;48.722;9.350;2023-07-31T08:54:02;21.60;99.90
14670;DHT22;7423;48.722;9.350;2023-07-31T08:56:32;21.60;99.90
14670;DHT22;7423;48.722;9.350;2023-07-31T08:59:02;21.70;99.90
14670;DHT22;7423;48.722;9.350;2023-07-31T09:01:30;21.80;99.90
14670;DHT22;7423;48.722;9.350;2023-07-31T09:03:59;21.70;99.90
14670;DHT22;7423;48.722;9.350;2023-07-31T09:06:28;21.80;99.90
14670;DHT22;7423;48.722;9.350;2023-07-31T09:08:56;21.90;99.90
14670;DHT22;7423;48.722;9.350;2023-07-31T09:11:24;22.00;99.90
14670;DHT22;7423;48.722;9.350;2023-07-31T09:13:52;22.10;99.90
14670;DHT22;7423;48.722;9.350;2023-07-31T09:16:24;22.10;99.90
14670;DHT22;7423;48.722;9.350;2023-07-31T09:18:55;22.20;99.90
14670;DHT22;7423;48.722;9.350;2023-07-31T09:21:24;22.10;99.90
14670;DHT22;7423;48.722;9.350;2023-07-31T09:23:52;22.20;99.90
14670;DHT22;7423;48.722;9.350;2023-07-31T09:26:35;22.30;99.90
14670;DHT22;7423;48.722;9.350;2023-07-31T09:29:07;22.40;99.90
14670;DHT22;7423;48.722;9.350;2023-07-31T09:31:45;22.50;99.90
14670;DHT22;7423;48.722;9.350;2023-07-31T09:34:12;22.50;99.90
14670;DHT22;7423;48.722;9.350;2023-07-31T09:36:45;22.60;99.90
14670;DHT22;7423;48.722;9.350;2023-07-31T09:39:15;22.60;99.90
14670;DHT22;7423;48.722;9.350;2023-07-31T09:41:48;22.60;99.90
14670;DHT22;7423;48.722;9.350;2023-07-31T09:44:20;22.70;99.90
14670;DHT22;7423;48.722;9.350;2023-07-31T09:46:47;22.70;99.90
14670;DHT22;7423;48.722;9.350;2023-07-31T09:49:15;22.80;99.90
14670;DHT22;7423;48.722;9.350;2023-07-31T09:51:48;22.90;99.90
14670;DHT22;7423;48.722;9.350;2023-07-31T09:54:16;23.00;99.90
14670;DHT22;7423;48.722;9.350;2023-07-31T09:56:45;22.90;99.90
14670;DHT22;7423;48.722;9.350;2023-07-31T09:59:15;22.90;99.90
14670;DHT22;7423;48.722;9.350;2023-07-31T10:01:48;22.80;99.90
14670;DHT22;7423;48.722;9.350;2023-07-31T10:04:17;22.90;99.90
14670;DHT22;7423;48.722;9.350;2023-07-31T10:06:49;23.00;99.90
14670;DHT22;7423;48.722;9.350;2023-07-31T10:09:18;23.00;99.90
14670;DHT22;7423;48.722;9.350;2023-07-31T10:12:00;23.10;99.90
14670;DHT22;7423;48.722;9.350;2023-07-31T10:14:27;23.10;99.90
14670;DHT22;7423;48.722;9.350;2023-07-31T10:16:57;23.10;99.90
14670;DHT22;7423;48.722;9.350;2023-07-31T10:19:26;23.20;99.90
14670;DHT22;7423;48.722;9.350;2023-07-31T10:21:54;23.20;99.90
14670;DHT22;7423;48.722;9.350;2023-07-31T10:24:23;23.20;99.90
14670;DHT22;7423;48.722;9.350;2023-07-31T10:26:52;23.20;99.90
14670;DHT22;7423;48.722;9.350;2023-07-31T10:29:20;23.20;99.90
14670;DHT22;7423;48.722;9.350;2023-07-31T10:31:48;23.30;99.90
14670;DHT22;7423;48.722;9.350;2023-07-31T10:34:16;23.30;99.90
14670;DHT22;7423;48.722;9.350;2023-07-31T10:36:43;23.30;99.90
14670;DHT22;7423;48.722;9.350;2023-07-31T10:39:34;23.30;99.90
14670;DHT22;7423;48.722;9.350;2023-07-31T10:42:14;23.30;99.90
14670;DHT22;7423;48.722;9.350;2023-07-31T10:44:46;23.30;99.90
14670;DHT22;7423;48.722;9.350;2023-07-31T10:47:17;23.30;99.90
14670;DHT22;7423;48.722;9.350;2023-07-31T10:49:47;23.40;99.90
14670;DHT22;7423;48.722;9.350;2023-07-31T10:52:20;23.50;99.90
14670;DHT22;7423;48.722;9.350;2023-07-31T10:58:13;23.60;99.90
14670;DHT22;7423;48.722;9.350;2023-07-31T11:00:42;23.60;99.90
14670;DHT22;7423;48.722;9.350;2023-07-31T11:03:17;23.70;99.90
14670;DHT22;7423;48.722;9.350;2023-07-31T11:05:54;23.70;99.90
14670;DHT22;7423;48.722;9.350;2023-07-31T11:08:29;23.70;99.90
14670;DHT22;7423;48.722;9.350;2023-07-31T11:11:04;23.80;99.90
14670;DHT22;7423;48.722;9.350;2023-07-31T11:13:39;23.80;99.90
14670;DHT22;7423;48.722;9.350;2023-07-31T11:16:08;23.80;99.90
14670;DHT22;7423;48.722;9.350;2023-07-31T11:18:39;23.80;99.90
14670;DHT22;7423;48.722;9.350;2023-07-31T11:21:09;23.90;99.90
14670;DHT22;7423;48.722;9.350;2023-07-31T11:23:39;24.00;99.90
14670;DHT22;7423;48.722;9.350;2023-07-31T11:26:06;24.00;99.90
14670;DHT22;7423;48.722;9.350;2023-07-31T11:28:34;24.00;99.90
14670;DHT22;7423;48.722;9.350;2023-07-31T11:31:02;24.10;99.90
14670;DHT22;7423;48.722;9.350;2023-07-31T11:33:30;24.10;99.90
14670;DHT22;7423;48.722;9.350;2023-07-31T11:35:57;24.10;99.90
14670;DHT22;7423;48.722;9.350;2023-07-31T11:38:28;24.10;99.90
14670;DHT22;7423;48.722;9.350;2023-07-31T11:40:58;24.20;99.90
14670;DHT22;7423;48.722;9.350;2023-07-31T11:43:30;24.10;99.90
14670;DHT22;7423;48.722;9.350;2023-07-31T11:45:59;24.20;99.90
14670;DHT22;7423;48.722;9.350;2023-07-31T11:48:32;24.20;99.90
14670;DHT22;7423;48.722;9.350;2023-07-31T11:51:06;24.20;99.90
14670;DHT22;7423;48.722;9.350;2023-07-31T11:53:47;24.10;99.90
14670;DHT22;7423;48.722;9.350;2023-07-31T11:56:18;24.20;99.90
14670;DHT22;7423;48.722;9.350;2023-07-31T11:58:49;24.20;99.90
14670;DHT22;7423;48.722;9.350;2023-07-31T12:01:19;24.20;99.90
14670;DHT22;7423;48.722;9.350;2023-07-31T12:03:48;24.20;99.90
14670;DHT22;7423;48.722;9.350;2023-07-31T12:06:16;24.10;99.90
14670;DHT22;7423;48.722;9.350;2023-07-31T12:08:43;24.30;99.90
14670;DHT22;7423;48.722;9.350;2023-07-31T12:11:10;24.30;99.90
14670;DHT22;7423;48.722;9.350;2023-07-31T12:13:37;24.20;99.90
14670;DHT22;7423;48.722;9.350;2023-07-31T12:16:04;24.30;99.90
14670;DHT22;7423;48.722;9.350;2023-07-31T12:18:38;24.20;99.90
14670;DHT22;7423;48.722;9.350;2023-07-31T12:21:07;24.30;99.90
14670;DHT22;7423;48.722;9.350;2023-07-31T12:23:36;24.40;99.90
14670;DHT22;7423;48.722;9.350;2023-07-31T12:28:43;24.20;99.90
14670;DHT22;7423;48.722;9.350;2023-07-31T12:31:21;24.10;99.90
14670;DHT22;7423;48.722;9.350;2023-07-31T12:33:50;24.10;99.90
14670;DHT22;7423;48.722;9.350;2023-07-31T12:36:23;24.10;99.90
14670;DHT22;7423;48.722;9.350;2023-07-31T12:38:51;24.10;99.90
14670;DHT22;7423;48.722;9.350;2023-07-31T12:41:19;24.10;99.90
14670;DHT22;7423;48.722;9.350;2023-07-31T12:43:46;24.00;99.90
14670;DHT22;7423;48.722;9.350;2023-07-31T12:46:13;24.10;99.90
14670;DHT22;7423;48.722;9.350;2023-07-31T12:48:40;24.10;99.90
14670;DHT22;7423;48.722;9.350;2023-07-31T12:51:07;24.10;99.90
14670;DHT22;7423;48.722;9.350;2023-07-31T12:53:35;24.20;99.90
14670;DHT22;7423;48.722;9.350;2023-07-31T12:56:02;24.20;99.90
14670;DHT22;7423;48.722;9.350;2023-07-31T12:58:29;24.20;99.90
14670;DHT22;7423;48.722;9.350;2023-07-31T13:00:56;24.20;99.90
14670;DHT22;7423;48.722;9.350;2023-07-31T13:03:23;24.10;99.90
14670;DHT22;7423;48.722;9.350;2023-07-31T13:05:50;24.10;99.90
14670;DHT22;7423;48.722;9.350;2023-07-31T13:08:19;24.10;99.90
14670;DHT22;7423;48.722;9.350;2023-07-31T13:10:46;24.10;99.90
14670;DHT22;7423;48.722;9.350;2023-07-31T13:13:13;24.10;99.90
14670;DHT22;7423;48.722;9.350;2023-07-31T13:15:40;24.00;99.90
14670;DHT22;7423;48.722;9.350;2023-07-31T13:18:07;23.90;99.90
14670;DHT22;7423;48.722;9.350;2023-07-31T13:20:34;24.00;99.90
14670;DHT22;7423;48.722;9.350;2023-07-31T13:23:01;24.10;99.90
14670;DHT22;7423;48.722;9.350;2023-07-31T13:25:28;24.00;99.90
14670;DHT22;7423;48.722;9.350;2023-07-31T13:27:55;24.00;99.90
14670;DHT22;7423;48.722;9.350;2023-07-31T13:30:23;23.90;99.90
14670;DHT22;7423;48.722;9.350;2023-07-31T13:32:50;24.00;99.90
14670;DHT22;7423;48.722;9.350;2023-07-31T13:35:17;24.10;99.90
14670;DHT22;7423;48.722;9.350;2023-07-31T13:37:44;23.90;99.90
14670;DHT22;7423;48.722;9.350;2023-07-31T13:40:11;24.00;99.90
14670;DHT22;7423;48.722;9.350;2023-07-31T13:42:38;23.90;99.90
14670;DHT22;7423;48.722;9.350;2023-07-31T13:45:05;23.90;99.90
14670;DHT22;7423;48.722;9.350;2023-07-31T13:47:33;23.90;99.90
14670;DHT22;7423;48.722;9.350;2023-07-31T13:50:01;23.90;99.90
14670;DHT22;7423;48.722;9.350;2023-07-31T13:52:28;24.00;99.90
14670;DHT22;7423;48.722;9.350;2023-07-31T13:54:55;24.00;99.90
14670;DHT22;7423;48.722;9.350;2023-07-31T13:57:22;24.10;99.90
14670;DHT22;7423;48.722;9.350;2023-07-31T13:59:50;24.10;99.90
14670;DHT22;7423;48.722;9.350;2023-07-31T14:02:17;24.10;99.90
14670;DHT22;7423;48.722;9.350;2023-07-31T14:04:44;24.10;99.90
14670;DHT22;7423;48.722;9.350;2023-07-31T14:07:11;24.10;99.90
14670;DHT22;7423;48.722;9.350;2023-07-31T14:09:38;24.10;99.90
14670;DHT22;7423;48.722;9.350;2023-07-31T14:12:05;24.10;99.90
14670;DHT22;7423;48.722;9.350;2023-07-31T14:14:32;24.10;99.90
14670;DHT22;7423;48.722;9.350;2023-07-31T14:17:01;24.10;99.90
14670;DHT22;7423;48.722;9.350;2023-07-31T14:19:28;24.20;99.90
14670;DHT22;7423;48.722;9.350;2023-07-31T14:21:57;24.20;99.90
14670;DHT22;7423;48.722;9.350;2023-07-31T14:24:37;24.20;99.90
14670;DHT22;7423;48.722;9.350;2023-07-31T14:27:04;24.20;99.90
14670;DHT22;7423;48.722;9.350;2023-07-31T14:29:31;24.10;99.90
14670;DHT22;7423;48.722;9.350;2023-07-31T14:31:58;24.10;99.90
14670;DHT22;7423;48.722;9.350;2023-07-31T14:34:26;24.20;99.90
14670;DHT22;7423;48.722;9.350;2023-07-31T14:36:53;24.20;99.90
14670;DHT22;7423;48.722;9.350;2023-07-31T14:39:20;24.30;99.90
14670;DHT22;7423;48.722;9.350;2023-07-31T14:41:47;24.30;99.90
14670;DHT22;7423;48.722;9.350;2023-07-31T14:44:14;24.40;99.90
14670;DHT22;7423;48.722;9.350;2023-07-31T14:46:41;24.30;99.90
14670;DHT22;7423;48.722;9.350;2023-07-31T14:49:09;24.40;99.90
14670;DHT22;7423;48.722;9.350;2023-07-31T14:51:36;24.30;99.90
14670;DHT22;7423;48.722;9.350;2023-07-31T14:54:03;24.30;99.90
14670;DHT22;7423;48.722;9.350;2023-07-31T14:56:29;24.30;99.90
14670;DHT22;7423;48.722;9.350;2023-07-31T14:58:57;24.30;99.90
14670;DHT22;7423;48.722;9.350;2023-07-31T15:01:24;24.30;99.90
14670;DHT22;7423;48.722;9.350;2023-07-31T15:03:51;24.30;99.90
14670;DHT22;7423;48.722;9.350;2023-07-31T15:06:18;24.40;99.90
14670;DHT22;7423;48.722;9.350;2023-07-31T15:08:45;24.40;99.90
14670;DHT22;7423;48.722;9.350;2023-07-31T15:11:12;24.40;99.90
14670;DHT22;7423;48.722;9.350;2023-07-31T15:13:39;24.60;99.90
14670;DHT22;7423;48.722;9.350;2023-07-31T15:16:06;24.50;99.90
14670;DHT22;7423;48.722;9.350;2023-07-31T15:18:33;24.60;99.90
14670;DHT22;7423;48.722;9.350;2023-07-31T15:21:00;24.50;99.90
14670;DHT22;7423;48.722;9.350;2023-07-31T15:23:27;24.50;99.90
14670;DHT22;7423;48.722;9.350;2023-07-31T15:25:54;24.60;99.90
14670;DHT22;7423;48.722;9.350;2023-07-31T15:28:20;24.60;99.90
14670;DHT22;7423;48.722;9.350;2023-07-31T15:30:47;24.60;99.90
14670;DHT22;7423;48.722;9.350;2023-07-31T15:33:15;24.50;99.90
14670;DHT22;7423;48.722;9.350;2023-07-31T15:35:42;24.60;99.90
14670;DHT22;7423;48.722;9.350;2023-07-31T15:38:09;24.60;99.90
14670;DHT22;7423;48.722;9.350;2023-07-31T15:40:38;24.60;99.90
14670;DHT22;7423;48.722;9.350;2023-07-31T15:43:05;24.70;99.90
14670;DHT22;7423;48.722;9.350;2023-07-31T15:45:32;24.60;99.90
14670;DHT22;7423;48.722;9.350;2023-07-31T15:47:59;24.60;99.90
14670;DHT22;7423;48.722;9.350;2023-07-31T15:50:26;24.50;99.90
14670;DHT22;7423;48.722;9.350;2023-07-31T15:52:53;24.60;99.90
14670;DHT22;7423;48.722;9.350;2023-07-31T15:55:20;24.60;99.90
14670;DHT22;7423;48.722;9.350;2023-07-31T15:57:48;24.70;99.90
14670;DHT22;7423;48.722;9.350;2023-07-31T16:00:15;24.60;99.90
14670;DHT22;7423;48.722;9.350;2023-07-31T16:02:42;24.60;99.90